sensor_id;sensor_type;location;lat;lon;timestamp;temperature;humidity
34815;DHT22;21030;53.912;15.214;2023-05-23T00:01:41;36.50;23.30
34815;DHT22;21030;53.912;15.214;2023-05-23T00:04:09;37.10;23.10
34815;DHT22;21030;53.912;15.214;2023-05-23T00:06:36;37.60;22.90
34815;DHT22;21030;53.912;15.214;2023-05-23T00:09:04;37.20;23.10
34815;DHT22;21030;53.912;15.214;2023-05-23T00:11:32;36.80;22.80
34815;DHT22;21030;53.912;15.214;2023-05-23T00:13:59;37.20;23.00
34815;DHT22;21030;53.912;15.214;2023-05-23T00:16:28;37.40;22.80
34815;DHT22;21030;53.912;15.214;2023-05-23T00:18:55;37.60;22.60
34815;DHT22;21030;53.912;15.214;2023-05-23T00:21:25;37.20;22.50
34815;DHT22;21030;53.912;15.214;2023-05-23T00:23:53;36.50;23.00
34815;DHT22;21030;53.912;15.214;2023-05-23T00:26:20;36.30;22.80
34815;DHT22;21030;53.912;15.214;2023-05-23T00:28:47;36.60;22.90
34815;DHT22;21030;53.912;15.214;2023-05-23T00:31:14;37.00;22.90
34815;DHT22;21030;53.912;15.214;2023-05-23T00:33:41;36.50;22.60
34815;DHT22;21030;53.912;15.214;2023-05-23T00:36:08;36.90;22.80
34815;DHT22;21030;53.912;15.214;2023-05-23T00:38:36;36.40;22.80
34815;DHT22;21030;53.912;15.214;2023-05-23T00:41:03;36.50;22.80
34815;DHT22;21030;53.912;15.214;2023-05-23T00:43:30;36.90;22.60
34815;DHT22;21030;53.912;15.214;2023-05-23T00:45:57;37.10;22.60
34815;DHT22;21030;53.912;15.214;2023-05-23T00:48:25;37.60;22.40
34815;DHT22;21030;53.912;15.214;2023-05-23T00:50:53;37.60;22.20
34815;DHT22;21030;53.912;15.214;2023-05-23T00:53:21;37.80;22.20
34815;DHT22;21030;53.912;15.214;2023-05-23T00:55:48;38.10;22.20
34815;DHT22;21030;53.912;15.214;2023-05-23T00:58:15;38.40;22.00
34815;DHT22;21030;53.912;15.214;2023-05-23T01:00:43;38.60;21.80
34815;DHT22;21030;53.912;15.214;2023-05-23T01:03:16;38.50;21.70
34815;DHT22;21030;53.912;15.214;2023-05-23T01:05:44;38.80;21.70
34815;DHT22;21030;53.912;15.214;2023-05-23T01:08:12;38.80;21.50
34815;DHT22;21030;53.912;15.214;2023-05-23T01:10:41;38.50;21.60
34815;DHT22;21030;53.912;15.214;2023-05-23T01:13:46;38.70;21.70
34815;DHT22;21030;53.912;15.214;2023-05-23T01:16:17;38.70;21.60
34815;DHT22;21030;53.912;15.214;2023-05-23T01:19:07;38.70;21.70
34815;DHT22;21030;53.912;15.214;2023-05-23T01:21:39;38.50;21.70
34815;DHT22;21030;53.912;15.214;2023-05-23T01:24:25;38.40;21.70
34815;DHT22;21030;53.912;15.214;2023-05-23T01:27:19;38.30;22.00
34815;DHT22;21030;53.912;15.214;2023-05-23T01:29:55;38.20;22.00
34815;DHT22;21030;53.912;15.214;2023-05-23T01:32:24;38.40;22.00
34815;DHT22;21030;53.912;15.214;2023-05-23T01:34:53;38.40;22.10
34815;DHT22;21030;53.912;15.214;2023-05-23T01:37:20;38.50;21.90
34815;DHT22;21030;53.912;15.214;2023-05-23T01:39:47;38.70;21.80
34815;DHT22;21030;53.912;15.214;2023-05-23T01:42:15;38.70;21.60
34815;DHT22;21030;53.912;15.214;2023-05-23T01:44:43;38.70;21.70
34815;DHT22;21030;53.912;15.214;2023-05-23T01:47:12;38.50;21.80
34815;DHT22;21030;53.912;15.214;2023-05-23T01:49:40;38.50;21.70
34815;DHT22;21030;53.912;15.214;2023-05-23T01:52:07;38.80;21.80
34815;DHT22;21030;53.912;15.214;2023-05-23T01:54:39;38.50;21.70
34815;DHT22;21030;53.912;15.214;2023-05-23T01:57:09;38.70;21.80
34815;DHT22;21030;53.912;15.214;2023-05-23T01:59:36;38.70;21.80
34815;DHT22;21030;53.912;15.214;2023-05-23T02:02:04;38.70;21.80
34815;DHT22;21030;53.912;15.214;2023-05-23T02:04:32;38.60;21.80
34815;DHT22;21030;53.912;15.214;2023-05-23T02:06:59;38.50;21.80
34815;DHT22;21030;53.912;15.214;2023-05-23T02:09:27;38.60;21.90
34815;DHT22;21030;53.912;15.214;2023-05-23T02:11:54;38.70;21.80
34815;DHT22;21030;53.912;15.214;2023-05-23T02:14:21;38.50;21.80
34815;DHT22;21030;53.912;15.214;2023-05-23T02:16:49;38.50;21.90
34815;DHT22;21030;53.912;15.214;2023-05-23T02:19:18;38.50;21.90
34815;DHT22;21030;53.912;15.214;2023-05-23T02:21:45;38.60;21.90
34815;DHT22;21030;53.912;15.214;2023-05-23T02:24:13;38.50;21.90
34815;DHT22;21030;53.912;15.214;2023-05-23T02:26:40;38.50;21.90
34815;DHT22;21030;53.912;15.214;2023-05-23T02:29:07;38.60;21.90
34815;DHT22;21030;53.912;15.214;2023-05-23T02:31:35;38.40;21.90
34815;DHT22;21030;53.912;15.214;2023-05-23T02:34:02;38.30;22.00
34815;DHT22;21030;53.912;15.214;2023-05-23T02:36:29;38.40;22.00
34815;DHT22;21030;53.912;15.214;2023-05-23T02:38:59;38.50;21.90
34815;DHT22;21030;53.912;15.214;2023-05-23T02:41:26;38.50;21.90
34815;DHT22;21030;53.912;15.214;2023-05-23T02:43:53;38.40;21.90
34815;DHT22;21030;53.912;15.214;2023-05-23T02:46:20;38.30;22.20
34815;DHT22;21030;53.912;15.214;2023-05-23T02:48:47;38.30;22.10
34815;DHT22;21030;53.912;15.214;2023-05-23T02:51:14;38.30;22.10
34815;DHT22;21030;53.912;15.214;2023-05-23T02:53:41;38.30;22.20
34815;DHT22;21030;53.912;15.214;2023-05-23T02:56:08;38.00;22.10
34815;DHT22;21030;53.912;15.214;2023-05-23T02:58:35;38.20;22.20
34815;DHT22;21030;53.912;15.214;2023-05-23T03:01:03;38.30;22.10
34815;DHT22;21030;53.912;15.214;2023-05-23T03:03:33;38.50;22.10
34815;DHT22;21030;53.912;15.214;2023-05-23T03:06:04;38.50;22.00
34815;DHT22;21030;53.912;15.214;2023-05-23T03:08:32;38.60;22.00
34815;DHT22;21030;53.912;15.214;2023-05-23T03:10:59;38.30;22.10
34815;DHT22;21030;53.912;15.214;2023-05-23T03:13:27;38.40;22.20
34815;DHT22;21030;53.912;15.214;2023-05-23T03:15:54;38.40;22.20
34815;DHT22;21030;53.912;15.214;2023-05-23T03:18:24;38.40;22.20
34815;DHT22;21030;53.912;15.214;2023-05-23T03:20:51;38.40;22.10
34815;DHT22;21030;53.912;15.214;2023-05-23T03:23:18;38.20;22.20
34815;DHT22;21030;53.912;15.214;2023-05-23T03:25:45;38.30;22.30
34815;DHT22;21030;53.912;15.214;2023-05-23T03:28:12;38.50;22.20
34815;DHT22;21030;53.912;15.214;2023-05-23T03:30:39;38.40;22.10
34815;DHT22;21030;53.912;15.214;2023-05-23T03:33:07;38.30;22.30
34815;DHT22;21030;53.912;15.214;2023-05-23T03:35:34;38.40;22.20
34815;DHT22;21030;53.912;15.214;2023-05-23T03:38:01;38.30;22.00
34815;DHT22;21030;53.912;15.214;2023-05-23T03:40:29;38.60;22.00
34815;DHT22;21030;53.912;15.214;2023-05-23T03:43:06;38.50;22.00
34815;DHT22;21030;53.912;15.214;2023-05-23T03:45:33;38.50;21.90
34815;DHT22;21030;53.912;15.214;2023-05-23T03:48:00;38.60;22.00
34815;DHT22;21030;53.912;15.214;2023-05-23T03:50:27;38.80;22.00
34815;DHT22;21030;53.912;15.214;2023-05-23T03:52:55;38.70;21.90
34815;DHT22;21030;53.912;15.214;2023-05-23T03:55:23;38.50;21.90
34815;DHT22;21030;53.912;15.214;2023-05-23T03:57:51;38.30;21.90
34815;DHT22;21030;53.912;15.214;2023-05-23T04:00:18;38.00;22.00
34815;DHT22;21030;53.912;15.214;2023-05-23T04:02:45;38.30;22.20
34815;DHT22;21030;53.912;15.214;2023-05-23T04:05:13;38.80;22.00
34815;DHT22;21030;53.912;15.214;2023-05-23T04:07:40;38.90;21.90
34815;DHT22;21030;53.912;15.214;2023-05-23T04:10:08;39.10;21.80
34815;DHT22;21030;53.912;15.214;2023-05-23T04:12:36;39.20;21.60
34815;DHT22;21030;53.912;15.214;2023-05-23T04:15:07;39.20;21.60
34815;DHT22;21030;53.912;15.214;2023-05-23T04:17:35;39.30;21.60
34815;DHT22;21030;53.912;15.214;2023-05-23T04:20:06;39.30;21.60
34815;DHT22;21030;53.912;15.214;2023-05-23T04:22:34;39.00;21.60
34815;DHT22;21030;53.912;15.214;2023-05-23T04:25:01;39.00;21.70
34815;DHT22;21030;53.912;15.214;2023-05-23T04:27:28;39.00;21.80
34815;DHT22;21030;53.912;15.214;2023-05-23T04:29:55;38.90;21.90
34815;DHT22;21030;53.912;15.214;2023-05-23T04:32:24;38.70;22.00
34815;DHT22;21030;53.912;15.214;2023-05-23T04:34:51;38.70;22.00
34815;DHT22;21030;53.912;15.214;2023-05-23T04:37:19;38.80;22.10
34815;DHT22;21030;53.912;15.214;2023-05-23T04:39:47;38.90;22.20
34815;DHT22;21030;53.912;15.214;2023-05-23T04:42:15;38.40;22.00
34815;DHT22;21030;53.912;15.214;2023-05-23T04:44:43;38.70;22.40
34815;DHT22;21030;53.912;15.214;2023-05-23T04:47:10;39.00;22.10
34815;DHT22;21030;53.912;15.214;2023-05-23T04:49:37;38.30;22.10
34815;DHT22;21030;53.912;15.214;2023-05-23T04:52:05;38.80;22.20
34815;DHT22;21030;53.912;15.214;2023-05-23T04:54:32;39.40;22.10
34815;DHT22;21030;53.912;15.214;2023-05-23T04:56:59;39.70;22.00
34815;DHT22;21030;53.912;15.214;2023-05-23T04:59:26;39.80;21.70
34815;DHT22;21030;53.912;15.214;2023-05-23T05:01:54;39.90;21.70
34815;DHT22;21030;53.912;15.214;2023-05-23T05:04:21;39.90;21.60
34815;DHT22;21030;53.912;15.214;2023-05-23T05:06:49;40.30;21.80
34815;DHT22;21030;53.912;15.214;2023-05-23T05:09:16;40.30;21.60
34815;DHT22;21030;53.912;15.214;2023-05-23T05:11:43;40.40;21.70
34815;DHT22;21030;53.912;15.214;2023-05-23T05:14:10;40.30;21.70
34815;DHT22;21030;53.912;15.214;2023-05-23T05:16:37;40.50;21.70
34815;DHT22;21030;53.912;15.214;2023-05-23T05:19:05;40.50;21.70
34815;DHT22;21030;53.912;15.214;2023-05-23T05:21:32;39.90;21.80
34815;DHT22;21030;53.912;15.214;2023-05-23T05:23:59;40.00;21.90
34815;DHT22;21030;53.912;15.214;2023-05-23T05:26:27;40.20;21.80
34815;DHT22;21030;53.912;15.214;2023-05-23T05:28:54;39.90;21.70
34815;DHT22;21030;53.912;15.214;2023-05-23T05:31:22;40.00;21.90
34815;DHT22;21030;53.912;15.214;2023-05-23T05:33:49;40.00;21.80
34815;DHT22;21030;53.912;15.214;2023-05-23T05:36:16;39.30;22.10
34815;DHT22;21030;53.912;15.214;2023-05-23T05:38:43;39.60;22.10
34815;DHT22;21030;53.912;15.214;2023-05-23T05:41:10;38.10;21.50
34815;DHT22;21030;53.912;15.214;2023-05-23T05:43:37;38.90;22.60
34815;DHT22;21030;53.912;15.214;2023-05-23T05:46:04;39.40;22.50
34815;DHT22;21030;53.912;15.214;2023-05-23T05:48:32;39.20;21.90
34815;DHT22;21030;53.912;15.214;2023-05-23T05:50:59;39.30;22.30
34815;DHT22;21030;53.912;15.214;2023-05-23T05:53:26;39.80;22.30
34815;DHT22;21030;53.912;15.214;2023-05-23T05:55:54;39.70;21.90
34815;DHT22;21030;53.912;15.214;2023-05-23T05:58:21;40.00;22.00
34815;DHT22;21030;53.912;15.214;2023-05-23T06:00:48;40.30;21.90
34815;DHT22;21030;53.912;15.214;2023-05-23T06:03:15;40.20;21.80
34815;DHT22;21030;53.912;15.214;2023-05-23T06:05:42;40.60;21.70
34815;DHT22;21030;53.912;15.214;2023-05-23T06:08:10;40.40;22.00
34815;DHT22;21030;53.912;15.214;2023-05-23T06:10:37;40.50;21.90
34815;DHT22;21030;53.912;15.214;2023-05-23T06:13:07;40.60;22.10
34815;DHT22;21030;53.912;15.214;2023-05-23T06:15:34;40.30;21.90
34815;DHT22;21030;53.912;15.214;2023-05-23T06:18:01;40.70;22.00
34815;DHT22;21030;53.912;15.214;2023-05-23T06:20:28;40.10;21.90
34815;DHT22;21030;53.912;15.214;2023-05-23T06:22:56;40.60;22.10
34815;DHT22;21030;53.912;15.214;2023-05-23T06:25:23;40.20;21.90
34815;DHT22;21030;53.912;15.214;2023-05-23T06:27:50;40.50;22.20
34815;DHT22;21030;53.912;15.214;2023-05-23T06:30:17;40.70;21.80
34815;DHT22;21030;53.912;15.214;2023-05-23T06:32:44;40.30;22.00
34815;DHT22;21030;53.912;15.214;2023-05-23T06:35:11;40.30;22.10
34815;DHT22;21030;53.912;15.214;2023-05-23T06:37:38;38.90;22.00
34815;DHT22;21030;53.912;15.214;2023-05-23T06:40:11;39.80;22.30
34815;DHT22;21030;53.912;15.214;2023-05-23T06:42:40;39.60;22.30
34815;DHT22;21030;53.912;15.214;2023-05-23T06:45:08;39.60;22.40
34815;DHT22;21030;53.912;15.214;2023-05-23T06:47:35;39.70;22.20
34815;DHT22;21030;53.912;15.214;2023-05-23T06:50:02;39.80;22.10
34815;DHT22;21030;53.912;15.214;2023-05-23T06:52:30;40.00;22.00
34815;DHT22;21030;53.912;15.214;2023-05-23T06:54:56;40.80;22.10
34815;DHT22;21030;53.912;15.214;2023-05-23T06:57:24;41.20;21.80
34815;DHT22;21030;53.912;15.214;2023-05-23T06:59:51;41.00;21.50
34815;DHT22;21030;53.912;15.214;2023-05-23T07:02:18;41.60;21.60
34815;DHT22;21030;53.912;15.214;2023-05-23T07:04:45;41.50;21.30
34815;DHT22;21030;53.912;15.214;2023-05-23T07:07:12;41.60;21.50
34815;DHT22;21030;53.912;15.214;2023-05-23T07:09:39;41.90;21.40
34815;DHT22;21030;53.912;15.214;2023-05-23T07:12:06;42.10;20.90
34815;DHT22;21030;53.912;15.214;2023-05-23T07:14:33;42.30;21.10
34815;DHT22;21030;53.912;15.214;2023-05-23T07:17:01;42.30;21.30
34815;DHT22;21030;53.912;15.214;2023-05-23T07:19:28;42.40;21.20
34815;DHT22;21030;53.912;15.214;2023-05-23T07:21:55;41.80;20.60
34815;DHT22;21030;53.912;15.214;2023-05-23T07:24:22;42.10;21.00
34815;DHT22;21030;53.912;15.214;2023-05-23T07:26:51;42.10;21.10
34815;DHT22;21030;53.912;15.214;2023-05-23T07:29:18;43.10;21.10
34815;DHT22;21030;53.912;15.214;2023-05-23T07:31:45;43.30;20.00
34815;DHT22;21030;53.912;15.214;2023-05-23T07:34:12;42.20;19.50
34815;DHT22;21030;53.912;15.214;2023-05-23T07:36:39;42.00;20.20
34815;DHT22;21030;53.912;15.214;2023-05-23T07:39:07;41.60;20.50
34815;DHT22;21030;53.912;15.214;2023-05-23T07:41:34;41.90;20.50
34815;DHT22;21030;53.912;15.214;2023-05-23T07:44:01;42.20;20.30
34815;DHT22;21030;53.912;15.214;2023-05-23T07:46:28;42.30;20.40
34815;DHT22;21030;53.912;15.214;2023-05-23T07:48:55;41.60;20.10
34815;DHT22;21030;53.912;15.214;2023-05-23T07:51:22;40.70;20.30
34815;DHT22;21030;53.912;15.214;2023-05-23T07:53:49;41.30;20.90
34815;DHT22;21030;53.912;15.214;2023-05-23T07:56:17;41.40;20.90
34815;DHT22;21030;53.912;15.214;2023-05-23T07:58:44;40.60;20.90
34815;DHT22;21030;53.912;15.214;2023-05-23T08:01:11;40.40;21.10
34815;DHT22;21030;53.912;15.214;2023-05-23T08:03:38;41.40;21.40
34815;DHT22;21030;53.912;15.214;2023-05-23T08:06:05;41.40;20.90
34815;DHT22;21030;53.912;15.214;2023-05-23T08:08:33;41.10;20.60
34815;DHT22;21030;53.912;15.214;2023-05-23T08:11:00;40.90;21.00
34815;DHT22;21030;53.912;15.214;2023-05-23T08:13:27;40.70;20.90
34815;DHT22;21030;53.912;15.214;2023-05-23T08:15:54;40.80;21.10
34815;DHT22;21030;53.912;15.214;2023-05-23T08:18:22;41.30;21.10
34815;DHT22;21030;53.912;15.214;2023-05-23T08:20:49;41.30;21.00
34815;DHT22;21030;53.912;15.214;2023-05-23T08:23:16;41.70;21.00
34815;DHT22;21030;53.912;15.214;2023-05-23T08:25:43;41.40;20.60
34815;DHT22;21030;53.912;15.214;2023-05-23T08:28:10;40.60;20.70
34815;DHT22;21030;53.912;15.214;2023-05-23T08:30:37;40.60;20.60
34815;DHT22;21030;53.912;15.214;2023-05-23T08:33:05;41.00;21.00
34815;DHT22;21030;53.912;15.214;2023-05-23T08:35:32;40.80;20.50
34815;DHT22;21030;53.912;15.214;2023-05-23T08:38:05;40.40;20.90
34815;DHT22;21030;53.912;15.214;2023-05-23T08:40:34;40.30;20.60
34815;DHT22;21030;53.912;15.214;2023-05-23T08:43:02;41.40;21.10
34815;DHT22;21030;53.912;15.214;2023-05-23T08:45:30;40.90;20.70
34815;DHT22;21030;53.912;15.214;2023-05-23T08:47:59;41.00;21.20
34815;DHT22;21030;53.912;15.214;2023-05-23T08:50:29;41.60;20.60
34815;DHT22;21030;53.912;15.214;2023-05-23T08:52:57;41.60;20.70
34815;DHT22;21030;53.912;15.214;2023-05-23T08:55:27;40.80;20.60
34815;DHT22;21030;53.912;15.214;2023-05-23T08:57:56;41.40;20.50
34815;DHT22;21030;53.912;15.214;2023-05-23T09:00:26;41.40;20.30
34815;DHT22;21030;53.912;15.214;2023-05-23T09:02:53;41.00;20.40
34815;DHT22;21030;53.912;15.214;2023-05-23T09:05:21;41.40;20.50
34815;DHT22;21030;53.912;15.214;2023-05-23T09:07:48;42.10;20.30
34815;DHT22;21030;53.912;15.214;2023-05-23T09:10:21;42.90;20.50
34815;DHT22;21030;53.912;15.214;2023-05-23T09:12:48;43.30;20.10
34815;DHT22;21030;53.912;15.214;2023-05-23T09:15:15;43.70;19.40
34815;DHT22;21030;53.912;15.214;2023-05-23T09:17:43;43.80;19.20
34815;DHT22;21030;53.912;15.214;2023-05-23T09:20:13;43.40;18.70
34815;DHT22;21030;53.912;15.214;2023-05-23T09:22:44;43.20;19.00
34815;DHT22;21030;53.912;15.214;2023-05-23T09:25:11;43.40;19.10
34815;DHT22;21030;53.912;15.214;2023-05-23T09:27:39;43.00;19.50
34815;DHT22;21030;53.912;15.214;2023-05-23T09:30:11;43.10;19.50
34815;DHT22;21030;53.912;15.214;2023-05-23T09:32:38;42.60;19.50
34815;DHT22;21030;53.912;15.214;2023-05-23T09:35:06;42.40;19.60
34815;DHT22;21030;53.912;15.214;2023-05-23T09:37:36;42.60;19.70
34815;DHT22;21030;53.912;15.214;2023-05-23T09:40:07;42.30;19.90
34815;DHT22;21030;53.912;15.214;2023-05-23T09:42:44;42.50;20.10
34815;DHT22;21030;53.912;15.214;2023-05-23T09:45:13;41.90;20.30
34815;DHT22;21030;53.912;15.214;2023-05-23T09:47:50;42.30;20.40
34815;DHT22;21030;53.912;15.214;2023-05-23T09:50:20;42.00;19.90
34815;DHT22;21030;53.912;15.214;2023-05-23T09:52:48;41.90;20.20
34815;DHT22;21030;53.912;15.214;2023-05-23T09:55:17;42.80;19.90
34815;DHT22;21030;53.912;15.214;2023-05-23T09:57:44;42.60;19.90
34815;DHT22;21030;53.912;15.214;2023-05-23T10:00:14;42.60;20.10
34815;DHT22;21030;53.912;15.214;2023-05-23T10:03:10;42.10;20.10
34815;DHT22;21030;53.912;15.214;2023-05-23T10:05:47;41.10;20.00
34815;DHT22;21030;53.912;15.214;2023-05-23T10:08:20;41.70;20.20
34815;DHT22;21030;53.912;15.214;2023-05-23T10:13:48;41.10;20.10
34815;DHT22;21030;53.912;15.214;2023-05-23T10:16:39;41.40;20.20
34815;DHT22;21030;53.912;15.214;2023-05-23T10:19:23;41.40;20.30
34815;DHT22;21030;53.912;15.214;2023-05-23T10:22:06;41.20;20.00
34815;DHT22;21030;53.912;15.214;2023-05-23T10:24:35;40.60;20.80
34815;DHT22;21030;53.912;15.214;2023-05-23T10:27:03;40.40;21.20
34815;DHT22;21030;53.912;15.214;2023-05-23T10:29:31;40.30;21.00
34815;DHT22;21030;53.912;15.214;2023-05-23T10:32:00;40.40;21.30
34815;DHT22;21030;53.912;15.214;2023-05-23T10:37:28;41.80;20.60
34815;DHT22;21030;53.912;15.214;2023-05-23T10:40:16;41.60;20.40
34815;DHT22;21030;53.912;15.214;2023-05-23T10:43:14;40.50;20.90
34815;DHT22;21030;53.912;15.214;2023-05-23T10:45:42;40.80;21.30
34815;DHT22;21030;53.912;15.214;2023-05-23T10:48:39;39.60;20.90
34815;DHT22;21030;53.912;15.214;2023-05-23T10:51:08;38.40;21.80
34815;DHT22;21030;53.912;15.214;2023-05-23T10:53:45;38.30;22.00
34815;DHT22;21030;53.912;15.214;2023-05-23T10:56:22;38.50;22.00
34815;DHT22;21030;53.912;15.214;2023-05-23T10:58:53;39.10;22.10
34815;DHT22;21030;53.912;15.214;2023-05-23T11:01:21;39.40;21.60
34815;DHT22;21030;53.912;15.214;2023-05-23T11:03:49;40.00;21.40
34815;DHT22;21030;53.912;15.214;2023-05-23T11:06:41;39.50;21.70
34815;DHT22;21030;53.912;15.214;2023-05-23T11:12:06;38.90;22.10
34815;DHT22;21030;53.912;15.214;2023-05-23T11:17:16;39.80;22.50
34815;DHT22;21030;53.912;15.214;2023-05-23T11:20:05;40.80;21.90
34815;DHT22;21030;53.912;15.214;2023-05-23T11:22:34;40.90;21.70
34815;DHT22;21030;53.912;15.214;2023-05-23T11:25:06;41.20;21.50
34815;DHT22;21030;53.912;15.214;2023-05-23T11:27:39;41.60;21.40
34815;DHT22;21030;53.912;15.214;2023-05-23T11:30:15;41.60;21.30
34815;DHT22;21030;53.912;15.214;2023-05-23T11:32:51;41.40;21.40
34815;DHT22;21030;53.912;15.214;2023-05-23T11:35:20;41.20;21.90
34815;DHT22;21030;53.912;15.214;2023-05-23T11:37:47;41.40;21.70
34815;DHT22;21030;53.912;15.214;2023-05-23T11:40:36;41.30;21.80
34815;DHT22;21030;53.912;15.214;2023-05-23T11:43:08;40.90;21.90
34815;DHT22;21030;53.912;15.214;2023-05-23T11:45:37;39.70;22.00
34815;DHT22;21030;53.912;15.214;2023-05-23T11:48:06;39.40;22.70
34815;DHT22;21030;53.912;15.214;2023-05-23T11:50:34;39.30;22.90
34815;DHT22;21030;53.912;15.214;2023-05-23T11:53:09;39.20;23.00
34815;DHT22;21030;53.912;15.214;2023-05-23T11:55:39;39.30;23.10
34815;DHT22;21030;53.912;15.214;2023-05-23T11:58:06;39.20;23.10
34815;DHT22;21030;53.912;15.214;2023-05-23T12:00:33;39.20;23.20
34815;DHT22;21030;53.912;15.214;2023-05-23T12:03:05;38.70;23.60
34815;DHT22;21030;53.912;15.214;2023-05-23T12:05:34;38.70;24.10
34815;DHT22;21030;53.912;15.214;2023-05-23T12:08:01;38.10;24.20
34815;DHT22;21030;53.912;15.214;2023-05-23T12:10:28;37.60;24.60
34815;DHT22;21030;53.912;15.214;2023-05-23T12:12:55;36.80;25.30
34815;DHT22;21030;53.912;15.214;2023-05-23T12:15:26;36.00;25.90
34815;DHT22;21030;53.912;15.214;2023-05-23T12:17:56;35.80;26.20
34815;DHT22;21030;53.912;15.214;2023-05-23T12:20:25;36.30;26.20
34815;DHT22;21030;53.912;15.214;2023-05-23T12:22:53;36.00;26.20
34815;DHT22;21030;53.912;15.214;2023-05-23T12:25:20;36.10;26.40
34815;DHT22;21030;53.912;15.214;2023-05-23T12:27:49;36.10;26.20
34815;DHT22;21030;53.912;15.214;2023-05-23T12:30:16;36.10;26.20
34815;DHT22;21030;53.912;15.214;2023-05-23T12:32:44;35.50;26.70
34815;DHT22;21030;53.912;15.214;2023-05-23T12:35:15;35.70;26.70
34815;DHT22;21030;53.912;15.214;2023-05-23T12:37:45;36.30;26.70
34815;DHT22;21030;53.912;15.214;2023-05-23T12:40:16;36.20;26.90
34815;DHT22;21030;53.912;15.214;2023-05-23T12:42:50;35.60;26.40
34815;DHT22;21030;53.912;15.214;2023-05-23T12:45:32;36.40;26.10
34815;DHT22;21030;53.912;15.214;2023-05-23T12:48:00;36.90;25.50
34815;DHT22;21030;53.912;15.214;2023-05-23T12:50:28;37.30;24.70
34815;DHT22;21030;53.912;15.214;2023-05-23T12:52:56;37.50;24.60
34815;DHT22;21030;53.912;15.214;2023-05-23T12:55:24;38.50;24.50
34815;DHT22;21030;53.912;15.214;2023-05-23T12:57:51;38.30;24.70
34815;DHT22;21030;53.912;15.214;2023-05-23T13:00:19;38.10;24.50
34815;DHT22;21030;53.912;15.214;2023-05-23T13:02:47;38.70;24.60
34815;DHT22;21030;53.912;15.214;2023-05-23T13:05:15;39.10;24.30
34815;DHT22;21030;53.912;15.214;2023-05-23T13:07:42;39.10;24.10
34815;DHT22;21030;53.912;15.214;2023-05-23T13:10:10;39.80;23.90
34815;DHT22;21030;53.912;15.214;2023-05-23T13:12:37;40.30;23.20
34815;DHT22;21030;53.912;15.214;2023-05-23T13:15:04;39.70;23.20
34815;DHT22;21030;53.912;15.214;2023-05-23T13:17:32;39.80;23.00
34815;DHT22;21030;53.912;15.214;2023-05-23T13:19:59;39.90;22.50
34815;DHT22;21030;53.912;15.214;2023-05-23T13:22:28;40.10;22.40
34815;DHT22;21030;53.912;15.214;2023-05-23T13:24:55;40.30;22.20
34815;DHT22;21030;53.912;15.214;2023-05-23T13:27:22;40.00;22.00
34815;DHT22;21030;53.912;15.214;2023-05-23T13:29:49;40.00;22.20
34815;DHT22;21030;53.912;15.214;2023-05-23T13:32:16;40.20;22.40
34815;DHT22;21030;53.912;15.214;2023-05-23T13:34:43;39.80;22.30
34815;DHT22;21030;53.912;15.214;2023-05-23T13:37:10;40.00;22.40
34815;DHT22;21030;53.912;15.214;2023-05-23T13:39:37;40.60;22.50
34815;DHT22;21030;53.912;15.214;2023-05-23T13:42:04;40.40;22.50
34815;DHT22;21030;53.912;15.214;2023-05-23T13:44:33;40.40;22.40
34815;DHT22;21030;53.912;15.214;2023-05-23T13:47:11;40.50;22.30
34815;DHT22;21030;53.912;15.214;2023-05-23T13:49:39;40.70;22.20
34815;DHT22;21030;53.912;15.214;2023-05-23T13:52:07;40.50;22.40
34815;DHT22;21030;53.912;15.214;2023-05-23T13:54:35;40.50;22.30
34815;DHT22;21030;53.912;15.214;2023-05-23T13:57:02;40.40;22.40
34815;DHT22;21030;53.912;15.214;2023-05-23T13:59:29;40.40;22.60
34815;DHT22;21030;53.912;15.214;2023-05-23T14:01:56;40.20;22.30
34815;DHT22;21030;53.912;15.214;2023-05-23T14:04:24;40.50;22.50
34815;DHT22;21030;53.912;15.214;2023-05-23T14:06:51;41.00;22.60
34815;DHT22;21030;53.912;15.214;2023-05-23T14:09:19;40.50;22.40
34815;DHT22;21030;53.912;15.214;2023-05-23T14:11:48;40.30;22.50
34815;DHT22;21030;53.912;15.214;2023-05-23T14:14:17;41.30;22.60
34815;DHT22;21030;53.912;15.214;2023-05-23T14:16:45;41.60;22.40
34815;DHT22;21030;53.912;15.214;2023-05-23T14:19:12;41.70;22.20
34815;DHT22;21030;53.912;15.214;2023-05-23T14:21:39;40.60;22.40
34815;DHT22;21030;53.912;15.214;2023-05-23T14:24:10;40.50;22.90
34815;DHT22;21030;53.912;15.214;2023-05-23T14:26:37;40.40;23.10
34815;DHT22;21030;53.912;15.214;2023-05-23T14:29:04;40.40;23.10
34815;DHT22;21030;53.912;15.214;2023-05-23T14:31:32;40.00;23.20
34815;DHT22;21030;53.912;15.214;2023-05-23T14:33:59;39.60;23.50
34815;DHT22;21030;53.912;15.214;2023-05-23T14:36:27;40.20;23.40
34815;DHT22;21030;53.912;15.214;2023-05-23T14:38:54;40.50;23.20
34815;DHT22;21030;53.912;15.214;2023-05-23T14:41:21;41.00;23.10
34815;DHT22;21030;53.912;15.214;2023-05-23T14:43:48;41.00;23.10
34815;DHT22;21030;53.912;15.214;2023-05-23T14:46:19;41.20;23.20
34815;DHT22;21030;53.912;15.214;2023-05-23T14:48:46;40.80;23.00
34815;DHT22;21030;53.912;15.214;2023-05-23T14:51:13;40.80;22.90
34815;DHT22;21030;53.912;15.214;2023-05-23T14:54:04;40.50;22.70
34815;DHT22;21030;53.912;15.214;2023-05-23T14:56:56;40.30;23.00
34815;DHT22;21030;53.912;15.214;2023-05-23T14:59:47;40.50;23.00
34815;DHT22;21030;53.912;15.214;2023-05-23T15:02:14;40.30;23.10
34815;DHT22;21030;53.912;15.214;2023-05-23T15:04:41;39.90;23.10
34815;DHT22;21030;53.912;15.214;2023-05-23T15:07:09;39.90;23.40
34815;DHT22;21030;53.912;15.214;2023-05-23T15:09:36;39.50;23.10
34815;DHT22;21030;53.912;15.214;2023-05-23T15:12:04;38.50;23.60
34815;DHT22;21030;53.912;15.214;2023-05-23T15:14:33;38.40;23.90
34815;DHT22;21030;53.912;15.214;2023-05-23T15:17:00;38.30;24.20
34815;DHT22;21030;53.912;15.214;2023-05-23T15:19:36;38.90;24.10
34815;DHT22;21030;53.912;15.214;2023-05-23T15:22:05;38.60;23.90
34815;DHT22;21030;53.912;15.214;2023-05-23T15:24:32;39.10;23.90
34815;DHT22;21030;53.912;15.214;2023-05-23T15:27:00;39.40;23.90
34815;DHT22;21030;53.912;15.214;2023-05-23T15:29:45;39.90;23.80
34815;DHT22;21030;53.912;15.214;2023-05-23T15:32:12;39.70;23.50
34815;DHT22;21030;53.912;15.214;2023-05-23T15:34:40;39.50;23.60
34815;DHT22;21030;53.912;15.214;2023-05-23T15:37:07;38.60;23.90
34815;DHT22;21030;53.912;15.214;2023-05-23T15:39:34;39.20;23.90